createdAt,value
2024-04-21T00:03:15.979Z,17.23
2024-04-21T00:08:21.239Z,16.95
2024-04-21T00:13:29.088Z,17.15
2024-04-21T00:18:34.425Z,16.96
2024-04-21T00:23:40.481Z,16.76
2024-04-21T00:28:51.171Z,16.65
2024-04-21T00:33:56.486Z,16.61
2024-04-21T00:39:01.690Z,16.39
2024-04-21T00:44:11.713Z,16.41
2024-04-21T00:49:17.595Z,16.40
2024-04-21T00:54:23.467Z,16.40
2024-04-21T00:59:34.097Z,16.15
2024-04-21T01:04:40.112Z,16.06
2024-04-21T01:09:46.111Z,16.13
2024-04-21T01:14:55.562Z,16.02
2024-04-21T01:20:02.913Z,16.05
2024-04-21T01:25:11.458Z,16.08
2024-04-21T01:30:17.172Z,15.89
2024-04-21T01:35:22.563Z,15.79
2024-04-21T01:40:33.520Z,15.76
2024-04-21T01:45:39.403Z,15.79
2024-04-21T01:50:45.013Z,15.66
2024-04-21T01:55:53.678Z,15.53
2024-04-21T02:00:59.262Z,15.48
2024-04-21T02:06:04.946Z,15.61
2024-04-21T02:11:14.082Z,15.73
2024-04-21T02:16:19.296Z,15.96
2024-04-21T02:21:24.519Z,16.14
2024-04-21T02:26:32.408Z,16.19
2024-04-21T02:31:37.607Z,16.30
2024-04-21T02:36:42.777Z,16.23
2024-04-21T02:41:50.641Z,16.26
2024-04-21T02:46:55.952Z,16.19
2024-04-21T02:52:01.236Z,16.10
2024-04-21T02:57:09.422Z,16.13
2024-04-21T03:02:14.602Z,16.11
2024-04-21T03:07:19.824Z,16.07
2024-04-21T03:12:27.718Z,16.02
2024-04-21T03:17:32.957Z,15.93
2024-04-21T03:22:38.294Z,15.75
2024-04-21T03:27:46.209Z,15.87
2024-04-21T03:32:56.631Z,15.73
2024-04-21T03:38:01.904Z,15.48
2024-04-21T03:43:09.774Z,15.79
2024-04-21T03:48:15.007Z,16.08
2024-04-21T03:53:21.665Z,16.05
2024-04-21T03:58:32.111Z,15.97
2024-04-21T04:03:41.847Z,16.02
2024-04-21T04:08:47.061Z,16.11
2024-04-21T04:13:54.919Z,16.14
2024-04-21T04:19:00.274Z,16.16
2024-04-21T04:24:06.078Z,16.23
2024-04-21T04:29:14.653Z,16.39
2024-04-21T04:34:19.891Z,16.29
2024-04-21T04:39:25.137Z,16.20
2024-04-21T04:44:40.675Z,16.29
2024-04-21T04:49:45.922Z,16.31
2024-04-21T04:54:51.337Z,16.26
2024-04-21T05:00:00.112Z,16.17
2024-04-21T05:05:06.817Z,16.16
2024-04-21T05:10:12.278Z,16.09
2024-04-21T05:15:20.888Z,16.04
2024-04-21T05:20:28.761Z,15.98
2024-04-21T05:25:37.015Z,15.91
2024-04-21T05:30:45.345Z,15.74
2024-04-21T05:35:50.538Z,15.71
2024-04-21T05:40:57.700Z,15.71
2024-04-21T05:46:09.209Z,15.68
2024-04-21T05:51:15.004Z,15.64
2024-04-21T05:56:20.456Z,15.62
2024-04-21T06:01:31.247Z,15.59
2024-04-21T06:06:37.718Z,15.58
2024-04-21T06:11:42.894Z,15.60
2024-04-21T06:16:50.890Z,15.53
2024-04-21T06:21:56.039Z,15.58
2024-04-21T06:27:01.539Z,15.68
2024-04-21T06:32:10.961Z,15.78
2024-04-21T06:37:16.659Z,15.92
2024-04-21T06:42:21.854Z,16.08
2024-04-21T06:47:29.741Z,16.22
2024-04-21T06:52:34.979Z,16.42
2024-04-21T06:57:40.170Z,16.59
2024-04-21T07:02:47.997Z,16.87
2024-04-21T07:07:55.680Z,16.96
2024-04-21T07:13:03.818Z,17.25
2024-04-21T07:18:11.837Z,17.63
2024-04-21T07:23:17.141Z,17.83
2024-04-21T07:28:28.247Z,18.09
2024-04-21T07:33:36.097Z,18.54
2024-04-21T07:38:41.304Z,18.68
2024-04-21T07:43:46.435Z,18.69
2024-04-21T07:48:54.369Z,18.84
2024-04-21T07:54:00.804Z,19.01
2024-04-21T07:59:06.499Z,18.88
2024-04-21T08:04:14.345Z,19.04
2024-04-21T08:09:29.440Z,19.49
2024-04-21T08:14:36.394Z,19.74
2024-04-21T08:19:44.256Z,20.13
2024-04-21T08:24:49.467Z,19.99
2024-04-21T08:29:54.732Z,20.07
2024-04-21T08:35:02.623Z,20.20
2024-04-21T08:40:09.542Z,20.46
2024-04-21T08:45:14.789Z,20.34
2024-04-21T08:50:24.813Z,20.55
2024-04-21T08:55:34.445Z,20.52
2024-04-21T09:00:40.292Z,20.51
2024-04-21T09:05:54.130Z,20.48
2024-04-21T09:11:01.142Z,20.83
2024-04-21T09:16:11.297Z,20.99
2024-04-21T09:21:20.257Z,21.12
2024-04-21T09:26:27.617Z,21.01
2024-04-21T09:31:34.611Z,21.41
2024-04-21T09:36:43.781Z,21.44
2024-04-21T09:41:52.694Z,21.46
2024-04-21T09:47:01.784Z,21.60
2024-04-21T09:52:12.807Z,21.67
2024-04-21T09:57:25.591Z,21.93
2024-04-21T10:02:37.599Z,22.10
2024-04-21T10:07:47.721Z,22.20
2024-04-21T10:12:53.419Z,22.17
2024-04-21T10:18:00.029Z,21.98
2024-04-21T10:23:11.871Z,22.32
2024-04-21T10:28:18.533Z,21.95
2024-04-21T10:33:31.843Z,22.47
2024-04-21T10:38:39.646Z,22.52
2024-04-21T10:43:45.026Z,22.58
2024-04-21T10:48:50.182Z,22.50
2024-04-21T10:53:58.157Z,22.35
2024-04-21T10:59:05.686Z,22.58
2024-04-21T11:04:10.858Z,22.49
2024-04-21T11:09:20.341Z,22.71
2024-04-21T11:14:26.789Z,22.56
2024-04-21T11:19:34.619Z,22.67
2024-04-21T11:24:42.548Z,22.64
2024-04-21T11:29:50.749Z,22.68
2024-04-21T11:34:55.879Z,22.67
2024-04-21T11:40:03.835Z,22.55
2024-04-21T11:45:09.154Z,22.42
2024-04-21T11:50:14.308Z,22.57
2024-04-21T11:55:22.323Z,22.72
2024-04-21T12:00:27.910Z,22.63
2024-04-21T12:05:33.080Z,22.75
2024-04-21T12:10:43.288Z,22.75
2024-04-21T12:15:48.519Z,22.67
2024-04-21T12:20:53.732Z,22.92
2024-04-21T12:26:01.552Z,22.89
2024-04-21T12:31:07.014Z,22.67
2024-04-21T12:36:12.311Z,22.89
2024-04-21T12:41:20.206Z,22.95
2024-04-21T12:46:25.436Z,23.24
2024-04-21T12:51:31.009Z,23.34
2024-04-21T12:56:38.889Z,23.41
2024-04-21T13:01:44.285Z,23.54
2024-04-21T13:06:49.907Z,23.53
2024-04-21T13:11:57.806Z,23.79
2024-04-21T13:17:03.057Z,23.72
2024-04-21T13:22:08.469Z,23.82
2024-04-21T13:27:16.601Z,24.04
2024-04-21T13:32:21.891Z,24.01
2024-04-21T13:37:27.169Z,24.27
2024-04-21T13:42:35.003Z,24.24
2024-04-21T13:47:40.183Z,24.36
2024-04-21T13:52:46.002Z,24.45
2024-04-21T13:57:53.845Z,24.44
2024-04-21T14:02:59.152Z,24.42
2024-04-21T14:08:04.308Z,24.48
2024-04-21T14:13:12.143Z,24.64
2024-04-21T14:18:17.409Z,24.58
2024-04-21T14:23:22.561Z,24.80
2024-04-21T14:28:32.428Z,24.81
2024-04-21T14:33:37.786Z,25.24
2024-04-21T14:38:43.204Z,25.06
2024-04-21T14:43:52.279Z,25.11
2024-04-21T14:48:57.459Z,25.22
2024-04-21T14:54:02.657Z,25.12
2024-04-21T14:59:10.533Z,25.07
2024-04-21T15:04:17.203Z,25.27
2024-04-21T15:09:26.192Z,25.58
2024-04-21T15:14:34.292Z,25.57
2024-04-21T15:19:39.541Z,25.70
2024-04-21T15:24:44.706Z,25.75
2024-04-21T15:29:52.523Z,25.71
2024-04-21T15:34:57.697Z,25.86
2024-04-21T15:40:02.928Z,25.70
2024-04-21T15:45:11.443Z,25.54
2024-04-21T15:50:17.308Z,25.53
2024-04-21T15:55:23.442Z,25.52
2024-04-21T16:00:33.676Z,25.32
2024-04-21T16:05:39.139Z,25.32
2024-04-21T16:10:44.371Z,25.17
2024-04-21T16:15:52.291Z,25.18
2024-04-21T16:20:57.432Z,25.15
2024-04-21T16:26:02.593Z,25.04
2024-04-21T16:31:10.568Z,25.10
2024-04-21T16:36:19.736Z,25.10
2024-04-21T16:41:25.476Z,25.09
2024-04-21T16:46:36.526Z,25.06
2024-04-21T16:51:42.338Z,25.06
2024-04-21T16:56:50.751Z,25.12
2024-04-21T17:01:59.376Z,25.04
2024-04-21T17:07:05.107Z,25.00
2024-04-21T17:12:10.798Z,24.91
2024-04-21T17:17:20.840Z,24.84
2024-04-21T17:22:26.292Z,24.87
2024-04-21T17:27:31.494Z,24.96
2024-04-21T17:32:39.474Z,25.02
2024-04-21T17:37:47.199Z,25.06
2024-04-21T17:42:55.209Z,25.17
2024-04-21T17:48:04.686Z,25.20
2024-04-21T17:53:09.834Z,25.17
2024-04-21T17:58:15.065Z,24.98
2024-04-21T18:03:22.903Z,24.81
2024-04-21T18:08:28.051Z,24.51
2024-04-21T18:13:33.265Z,24.13
2024-04-21T18:18:41.407Z,23.81
2024-04-21T18:23:46.653Z,23.53
2024-04-21T18:28:51.850Z,23.46
2024-04-21T18:33:59.714Z,23.38
2024-04-21T18:39:04.964Z,23.40
2024-04-21T18:44:10.083Z,23.36
2024-04-21T18:49:17.947Z,23.26
2024-04-21T18:54:23.578Z,22.97
2024-04-21T18:59:28.713Z,22.81
2024-04-21T19:04:36.679Z,22.68
2024-04-21T19:09:42.431Z,22.55
2024-04-21T19:14:48.173Z,22.41
2024-04-21T19:19:56.662Z,22.31
2024-04-21T19:25:01.848Z,21.92
2024-04-21T19:30:07.494Z,21.74
2024-04-21T19:35:15.374Z,21.49
2024-04-21T19:40:20.661Z,21.18
2024-04-21T19:45:25.910Z,20.92
2024-04-21T19:50:33.716Z,20.74
2024-04-21T19:55:38.880Z,20.69
2024-04-21T20:00:44.090Z,20.63
2024-04-21T20:05:51.905Z,20.61
2024-04-21T20:10:57.057Z,20.33
2024-04-21T20:16:17.740Z,20.18
2024-04-21T20:21:25.607Z,19.92
2024-04-21T20:26:30.996Z,19.76
2024-04-21T20:31:36.234Z,20.02
2024-04-21T20:36:44.100Z,20.15
2024-04-21T20:41:49.291Z,19.93
2024-04-21T20:46:54.431Z,19.75
2024-04-21T20:52:02.316Z,19.51
2024-04-21T20:57:07.737Z,19.27
2024-04-21T21:02:12.922Z,19.54
2024-04-21T21:07:20.796Z,19.29
2024-04-21T21:12:26.019Z,19.09
2024-04-21T21:17:32.943Z,19.25
2024-04-21T21:22:42.239Z,19.39
2024-04-21T21:27:47.417Z,19.03
2024-04-21T21:32:52.767Z,18.93
2024-04-21T21:38:00.596Z,18.96
2024-04-21T21:43:05.774Z,18.63
2024-04-21T21:48:11.597Z,18.69
2024-04-21T21:53:20.604Z,18.80
2024-04-21T21:58:25.781Z,18.86
2024-04-21T22:03:31.034Z,18.89
2024-04-21T22:08:38.861Z,18.79
2024-04-21T22:13:44.056Z,18.64
2024-04-21T22:18:49.291Z,17.72
2024-04-21T22:23:57.159Z,18.14
2024-04-21T22:29:02.311Z,18.01
2024-04-21T22:34:07.460Z,18.29
2024-04-21T22:39:15.379Z,18.31
2024-04-21T22:44:20.714Z,18.22
2024-04-21T22:49:25.874Z,17.81
2024-04-21T22:54:33.694Z,18.06
2024-04-21T22:59:38.893Z,17.90
2024-04-21T23:04:44.025Z,17.69
2024-04-21T23:09:51.972Z,17.68
2024-04-21T23:14:57.104Z,17.38
2024-04-21T23:20:02.364Z,17.14
2024-04-21T23:25:10.654Z,16.89
2024-04-21T23:30:16.093Z,16.77
2024-04-21T23:35:21.261Z,16.63
2024-04-21T23:40:29.097Z,16.61
2024-04-21T23:45:34.361Z,16.36
2024-04-21T23:50:39.502Z,16.17
2024-04-21T23:55:47.332Z,16.17
